sensor_id;sensor_type;location;lat;lon;timestamp;P1;durP1;ratioP1;P2;durP2;ratioP2
1509;SDS011;746;48.688;9.428;2023-02-10T00:01:35;53.33;;;31.77;;
1509;SDS011;746;48.688;9.428;2023-02-10T00:03:56;50.97;;;31.03;;
1509;SDS011;746;48.688;9.428;2023-02-10T00:06:18;50.80;;;30.50;;
1509;SDS011;746;48.688;9.428;2023-02-10T00:08:39;48.77;;;29.30;;
1509;SDS011;746;48.688;9.428;2023-02-10T00:11:01;48.57;;;29.73;;
1509;SDS011;746;48.688;9.428;2023-02-10T00:13:22;50.37;;;30.53;;
1509;SDS011;746;48.688;9.428;2023-02-10T00:15:45;48.23;;;30.57;;
1509;SDS011;746;48.688;9.428;2023-02-10T00:18:07;51.60;;;31.07;;
1509;SDS011;746;48.688;9.428;2023-02-10T00:20:28;58.30;;;31.87;;
1509;SDS011;746;48.688;9.428;2023-02-10T00:22:50;54.50;;;33.07;;
1509;SDS011;746;48.688;9.428;2023-02-10T00:25:11;53.67;;;33.70;;
1509;SDS011;746;48.688;9.428;2023-02-10T00:27:32;55.13;;;33.03;;
1509;SDS011;746;48.688;9.428;2023-02-10T00:29:53;53.93;;;31.53;;
1509;SDS011;746;48.688;9.428;2023-02-10T00:32:16;53.93;;;31.90;;
1509;SDS011;746;48.688;9.428;2023-02-10T00:34:38;59.17;;;33.47;;
1509;SDS011;746;48.688;9.428;2023-02-10T00:36:59;49.83;;;31.27;;
1509;SDS011;746;48.688;9.428;2023-02-10T00:39:20;51.87;;;32.03;;
1509;SDS011;746;48.688;9.428;2023-02-10T00:41:41;54.00;;;31.63;;
1509;SDS011;746;48.688;9.428;2023-02-10T00:44:03;52.97;;;31.07;;
1509;SDS011;746;48.688;9.428;2023-02-10T00:46:24;51.27;;;30.77;;
1509;SDS011;746;48.688;9.428;2023-02-10T00:48:47;51.53;;;30.77;;
1509;SDS011;746;48.688;9.428;2023-02-10T00:51:08;50.53;;;30.93;;
1509;SDS011;746;48.688;9.428;2023-02-10T00:53:29;52.97;;;30.93;;
1509;SDS011;746;48.688;9.428;2023-02-10T00:55:51;48.93;;;29.90;;
1509;SDS011;746;48.688;9.428;2023-02-10T00:58:15;50.20;;;29.33;;
1509;SDS011;746;48.688;9.428;2023-02-10T01:00:36;49.23;;;31.10;;
1509;SDS011;746;48.688;9.428;2023-02-10T01:02:58;52.87;;;30.00;;
1509;SDS011;746;48.688;9.428;2023-02-10T01:05:20;52.90;;;31.30;;
1509;SDS011;746;48.688;9.428;2023-02-10T01:07:42;48.37;;;31.67;;
1509;SDS011;746;48.688;9.428;2023-02-10T01:10:04;53.57;;;30.63;;
1509;SDS011;746;48.688;9.428;2023-02-10T01:12:25;53.27;;;29.33;;
1509;SDS011;746;48.688;9.428;2023-02-10T01:14:46;49.63;;;30.03;;
1509;SDS011;746;48.688;9.428;2023-02-10T01:17:08;49.20;;;29.80;;
1509;SDS011;746;48.688;9.428;2023-02-10T01:19:29;52.33;;;30.73;;
1509;SDS011;746;48.688;9.428;2023-02-10T01:21:52;53.20;;;30.47;;
1509;SDS011;746;48.688;9.428;2023-02-10T01:24:13;55.53;;;30.67;;
1509;SDS011;746;48.688;9.428;2023-02-10T01:26:35;52.23;;;31.37;;
1509;SDS011;746;48.688;9.428;2023-02-10T01:28:56;50.23;;;30.43;;
1509;SDS011;746;48.688;9.428;2023-02-10T01:31:18;57.17;;;31.17;;
1509;SDS011;746;48.688;9.428;2023-02-10T01:33:40;51.90;;;31.80;;
1509;SDS011;746;48.688;9.428;2023-02-10T01:36:02;48.60;;;30.03;;
1509;SDS011;746;48.688;9.428;2023-02-10T01:38:25;49.20;;;29.37;;
1509;SDS011;746;48.688;9.428;2023-02-10T01:40:47;49.33;;;29.80;;
1509;SDS011;746;48.688;9.428;2023-02-10T01:43:10;49.83;;;29.63;;
1509;SDS011;746;48.688;9.428;2023-02-10T01:45:34;53.93;;;31.00;;
1509;SDS011;746;48.688;9.428;2023-02-10T01:47:55;49.57;;;29.43;;
1509;SDS011;746;48.688;9.428;2023-02-10T01:50:18;47.27;;;29.30;;
1509;SDS011;746;48.688;9.428;2023-02-10T01:52:40;49.37;;;28.93;;
1509;SDS011;746;48.688;9.428;2023-02-10T01:55:04;50.57;;;30.17;;
1509;SDS011;746;48.688;9.428;2023-02-10T01:57:25;48.83;;;29.43;;
1509;SDS011;746;48.688;9.428;2023-02-10T01:59:46;54.07;;;30.43;;
1509;SDS011;746;48.688;9.428;2023-02-10T02:02:08;52.37;;;29.53;;
1509;SDS011;746;48.688;9.428;2023-02-10T02:04:29;51.10;;;30.27;;
1509;SDS011;746;48.688;9.428;2023-02-10T02:06:50;51.60;;;29.57;;
1509;SDS011;746;48.688;9.428;2023-02-10T02:09:12;46.80;;;28.57;;
1509;SDS011;746;48.688;9.428;2023-02-10T02:11:36;48.80;;;29.10;;
1509;SDS011;746;48.688;9.428;2023-02-10T02:14:08;50.97;;;30.13;;
1509;SDS011;746;48.688;9.428;2023-02-10T02:16:34;48.60;;;29.67;;
1509;SDS011;746;48.688;9.428;2023-02-10T02:18:59;57.97;;;31.13;;
1509;SDS011;746;48.688;9.428;2023-02-10T02:24:18;52.90;;;28.63;;
1509;SDS011;746;48.688;9.428;2023-02-10T02:26:49;47.33;;;29.57;;
1509;SDS011;746;48.688;9.428;2023-02-10T02:31:59;52.83;;;31.07;;
1509;SDS011;746;48.688;9.428;2023-02-10T02:34:22;54.87;;;29.30;;
1509;SDS011;746;48.688;9.428;2023-02-10T02:36:46;54.70;;;30.30;;
1509;SDS011;746;48.688;9.428;2023-02-10T02:39:08;50.67;;;28.60;;
1509;SDS011;746;48.688;9.428;2023-02-10T02:41:30;49.23;;;28.50;;
1509;SDS011;746;48.688;9.428;2023-02-10T02:43:52;49.70;;;29.13;;
1509;SDS011;746;48.688;9.428;2023-02-10T02:46:25;51.70;;;29.83;;
1509;SDS011;746;48.688;9.428;2023-02-10T02:48:54;53.90;;;30.30;;
1509;SDS011;746;48.688;9.428;2023-02-10T02:51:20;51.03;;;30.60;;
1509;SDS011;746;48.688;9.428;2023-02-10T02:53:43;51.77;;;29.07;;
1509;SDS011;746;48.688;9.428;2023-02-10T02:56:09;51.33;;;28.93;;
1509;SDS011;746;48.688;9.428;2023-02-10T02:58:34;54.60;;;30.07;;
1509;SDS011;746;48.688;9.428;2023-02-10T03:01:00;51.73;;;30.90;;
1509;SDS011;746;48.688;9.428;2023-02-10T03:03:25;54.27;;;31.50;;
1509;SDS011;746;48.688;9.428;2023-02-10T03:05:48;56.03;;;31.47;;
1509;SDS011;746;48.688;9.428;2023-02-10T03:08:10;50.43;;;30.37;;
1509;SDS011;746;48.688;9.428;2023-02-10T03:10:31;49.50;;;28.67;;
1509;SDS011;746;48.688;9.428;2023-02-10T03:12:52;48.43;;;29.60;;
1509;SDS011;746;48.688;9.428;2023-02-10T03:15:14;53.17;;;30.73;;
1509;SDS011;746;48.688;9.428;2023-02-10T03:17:35;49.00;;;29.13;;
1509;SDS011;746;48.688;9.428;2023-02-10T03:19:56;45.57;;;28.47;;
1509;SDS011;746;48.688;9.428;2023-02-10T03:22:19;47.83;;;29.67;;
1509;SDS011;746;48.688;9.428;2023-02-10T03:24:40;47.73;;;29.90;;
1509;SDS011;746;48.688;9.428;2023-02-10T03:27:01;47.53;;;28.77;;
1509;SDS011;746;48.688;9.428;2023-02-10T03:29:25;48.23;;;28.60;;
1509;SDS011;746;48.688;9.428;2023-02-10T03:31:46;55.87;;;31.27;;
1509;SDS011;746;48.688;9.428;2023-02-10T03:34:08;50.23;;;29.47;;
1509;SDS011;746;48.688;9.428;2023-02-10T03:36:29;54.23;;;29.63;;
1509;SDS011;746;48.688;9.428;2023-02-10T03:38:54;50.97;;;28.40;;
1509;SDS011;746;48.688;9.428;2023-02-10T03:41:16;47.80;;;29.27;;
1509;SDS011;746;48.688;9.428;2023-02-10T03:43:37;54.17;;;29.30;;
1509;SDS011;746;48.688;9.428;2023-02-10T03:45:59;48.27;;;29.37;;
1509;SDS011;746;48.688;9.428;2023-02-10T03:48:20;55.33;;;30.03;;
1509;SDS011;746;48.688;9.428;2023-02-10T03:50:47;45.80;;;29.77;;
1509;SDS011;746;48.688;9.428;2023-02-10T03:53:08;54.83;;;29.83;;
1509;SDS011;746;48.688;9.428;2023-02-10T03:55:31;48.10;;;29.40;;
1509;SDS011;746;48.688;9.428;2023-02-10T03:57:52;47.83;;;29.33;;
1509;SDS011;746;48.688;9.428;2023-02-10T04:00:15;48.47;;;29.73;;
1509;SDS011;746;48.688;9.428;2023-02-10T04:02:36;48.67;;;29.30;;
1509;SDS011;746;48.688;9.428;2023-02-10T04:04:57;51.30;;;29.70;;
1509;SDS011;746;48.688;9.428;2023-02-10T04:07:19;48.03;;;28.70;;
1509;SDS011;746;48.688;9.428;2023-02-10T04:09:40;54.70;;;30.60;;
1509;SDS011;746;48.688;9.428;2023-02-10T04:12:03;50.63;;;28.80;;
1509;SDS011;746;48.688;9.428;2023-02-10T04:14:24;49.47;;;29.87;;
1509;SDS011;746;48.688;9.428;2023-02-10T04:16:45;59.13;;;29.43;;
1509;SDS011;746;48.688;9.428;2023-02-10T04:19:07;50.53;;;29.67;;
1509;SDS011;746;48.688;9.428;2023-02-10T04:21:28;53.53;;;29.40;;
1509;SDS011;746;48.688;9.428;2023-02-10T04:23:50;53.57;;;28.27;;
1509;SDS011;746;48.688;9.428;2023-02-10T04:26:11;50.47;;;29.73;;
1509;SDS011;746;48.688;9.428;2023-02-10T04:28:34;49.57;;;29.80;;
1509;SDS011;746;48.688;9.428;2023-02-10T04:30:56;51.07;;;27.80;;
1509;SDS011;746;48.688;9.428;2023-02-10T04:33:19;51.90;;;29.83;;
1509;SDS011;746;48.688;9.428;2023-02-10T04:35:40;47.47;;;28.07;;
1509;SDS011;746;48.688;9.428;2023-02-10T04:38:04;50.50;;;28.10;;
1509;SDS011;746;48.688;9.428;2023-02-10T04:40:25;49.57;;;28.07;;
1509;SDS011;746;48.688;9.428;2023-02-10T04:42:46;41.30;;;26.47;;
1509;SDS011;746;48.688;9.428;2023-02-10T04:45:09;47.40;;;28.20;;
1509;SDS011;746;48.688;9.428;2023-02-10T04:47:30;48.73;;;28.07;;
1509;SDS011;746;48.688;9.428;2023-02-10T04:49:52;51.13;;;28.07;;
1509;SDS011;746;48.688;9.428;2023-02-10T04:52:13;49.17;;;28.97;;
1509;SDS011;746;48.688;9.428;2023-02-10T04:54:34;49.97;;;28.87;;
1509;SDS011;746;48.688;9.428;2023-02-10T04:56:56;55.63;;;29.57;;
1509;SDS011;746;48.688;9.428;2023-02-10T04:59:17;49.27;;;28.97;;
1509;SDS011;746;48.688;9.428;2023-02-10T05:01:40;50.00;;;29.93;;
1509;SDS011;746;48.688;9.428;2023-02-10T05:04:01;50.70;;;28.03;;
1509;SDS011;746;48.688;9.428;2023-02-10T05:06:22;46.43;;;28.40;;
1509;SDS011;746;48.688;9.428;2023-02-10T05:08:44;45.80;;;28.77;;
1509;SDS011;746;48.688;9.428;2023-02-10T05:11:06;48.47;;;28.77;;
1509;SDS011;746;48.688;9.428;2023-02-10T05:13:27;48.53;;;29.07;;
1509;SDS011;746;48.688;9.428;2023-02-10T05:15:49;49.80;;;28.93;;
1509;SDS011;746;48.688;9.428;2023-02-10T05:18:11;46.80;;;29.10;;
1509;SDS011;746;48.688;9.428;2023-02-10T05:20:33;46.90;;;28.03;;
1509;SDS011;746;48.688;9.428;2023-02-10T05:22:54;54.20;;;30.50;;
1509;SDS011;746;48.688;9.428;2023-02-10T05:25:15;56.93;;;31.60;;
1509;SDS011;746;48.688;9.428;2023-02-10T05:27:36;54.93;;;30.77;;
1509;SDS011;746;48.688;9.428;2023-02-10T05:29:58;48.30;;;29.10;;
1509;SDS011;746;48.688;9.428;2023-02-10T05:32:19;54.27;;;30.73;;
1509;SDS011;746;48.688;9.428;2023-02-10T05:34:42;46.27;;;28.87;;
1509;SDS011;746;48.688;9.428;2023-02-10T05:37:03;53.77;;;28.73;;
1509;SDS011;746;48.688;9.428;2023-02-10T05:39:25;46.37;;;27.50;;
1509;SDS011;746;48.688;9.428;2023-02-10T05:41:46;49.37;;;27.90;;
1509;SDS011;746;48.688;9.428;2023-02-10T05:44:07;45.27;;;27.53;;
1509;SDS011;746;48.688;9.428;2023-02-10T05:46:29;47.03;;;27.73;;
1509;SDS011;746;48.688;9.428;2023-02-10T05:48:50;43.93;;;26.43;;
1509;SDS011;746;48.688;9.428;2023-02-10T05:51:13;45.17;;;26.73;;
1509;SDS011;746;48.688;9.428;2023-02-10T05:53:34;49.90;;;28.17;;
1509;SDS011;746;48.688;9.428;2023-02-10T05:55:56;48.50;;;28.00;;
1509;SDS011;746;48.688;9.428;2023-02-10T05:58:17;48.53;;;29.30;;
1509;SDS011;746;48.688;9.428;2023-02-10T06:00:38;43.90;;;27.37;;
1509;SDS011;746;48.688;9.428;2023-02-10T06:02:59;49.77;;;29.73;;
1509;SDS011;746;48.688;9.428;2023-02-10T06:05:21;49.90;;;29.10;;
1509;SDS011;746;48.688;9.428;2023-02-10T06:07:43;51.17;;;28.83;;
1509;SDS011;746;48.688;9.428;2023-02-10T06:10:05;49.23;;;28.07;;
1509;SDS011;746;48.688;9.428;2023-02-10T06:12:27;50.23;;;28.80;;
1509;SDS011;746;48.688;9.428;2023-02-10T06:14:48;46.97;;;27.43;;
1509;SDS011;746;48.688;9.428;2023-02-10T06:17:09;46.87;;;27.63;;
1509;SDS011;746;48.688;9.428;2023-02-10T06:19:31;51.17;;;29.90;;
1509;SDS011;746;48.688;9.428;2023-02-10T06:21:52;60.23;;;33.70;;
1509;SDS011;746;48.688;9.428;2023-02-10T06:24:15;63.27;;;35.23;;
1509;SDS011;746;48.688;9.428;2023-02-10T06:26:36;65.87;;;36.13;;
1509;SDS011;746;48.688;9.428;2023-02-10T06:28:58;62.27;;;34.37;;
1509;SDS011;746;48.688;9.428;2023-02-10T06:31:19;52.13;;;29.33;;
1509;SDS011;746;48.688;9.428;2023-02-10T06:33:41;48.87;;;28.73;;
1509;SDS011;746;48.688;9.428;2023-02-10T06:36:03;53.53;;;30.37;;
1509;SDS011;746;48.688;9.428;2023-02-10T06:38:25;54.73;;;29.63;;
1509;SDS011;746;48.688;9.428;2023-02-10T06:40:48;57.87;;;29.67;;
1509;SDS011;746;48.688;9.428;2023-02-10T06:43:09;54.03;;;31.53;;
1509;SDS011;746;48.688;9.428;2023-02-10T06:45:30;58.70;;;31.73;;
1509;SDS011;746;48.688;9.428;2023-02-10T06:47:53;54.03;;;31.23;;
1509;SDS011;746;48.688;9.428;2023-02-10T06:50:14;51.00;;;30.73;;
1509;SDS011;746;48.688;9.428;2023-02-10T06:52:37;53.07;;;31.33;;
1509;SDS011;746;48.688;9.428;2023-02-10T06:54:59;57.00;;;31.73;;
1509;SDS011;746;48.688;9.428;2023-02-10T06:57:21;52.47;;;31.77;;
1509;SDS011;746;48.688;9.428;2023-02-10T06:59:46;61.50;;;34.83;;
1509;SDS011;746;48.688;9.428;2023-02-10T07:02:07;67.87;;;35.70;;
1509;SDS011;746;48.688;9.428;2023-02-10T07:04:30;66.10;;;34.20;;
1509;SDS011;746;48.688;9.428;2023-02-10T07:06:51;54.97;;;31.53;;
1509;SDS011;746;48.688;9.428;2023-02-10T07:09:12;56.43;;;32.63;;
1509;SDS011;746;48.688;9.428;2023-02-10T07:11:34;61.50;;;32.30;;
1509;SDS011;746;48.688;9.428;2023-02-10T07:13:57;53.33;;;31.43;;
1509;SDS011;746;48.688;9.428;2023-02-10T07:16:18;51.43;;;30.63;;
1509;SDS011;746;48.688;9.428;2023-02-10T07:18:39;55.40;;;30.50;;
1509;SDS011;746;48.688;9.428;2023-02-10T07:21:00;55.97;;;30.97;;
1509;SDS011;746;48.688;9.428;2023-02-10T07:23:23;59.03;;;34.83;;
1509;SDS011;746;48.688;9.428;2023-02-10T07:25:55;64.03;;;37.57;;
1509;SDS011;746;48.688;9.428;2023-02-10T07:28:16;59.53;;;34.10;;
1509;SDS011;746;48.688;9.428;2023-02-10T07:30:39;60.93;;;34.60;;
1509;SDS011;746;48.688;9.428;2023-02-10T07:33:00;62.13;;;32.73;;
1509;SDS011;746;48.688;9.428;2023-02-10T07:35:22;55.37;;;32.87;;
1509;SDS011;746;48.688;9.428;2023-02-10T07:37:43;57.30;;;32.77;;
1509;SDS011;746;48.688;9.428;2023-02-10T07:40:05;53.60;;;32.17;;
1509;SDS011;746;48.688;9.428;2023-02-10T07:42:26;56.27;;;33.33;;
1509;SDS011;746;48.688;9.428;2023-02-10T07:44:47;53.60;;;32.13;;
1509;SDS011;746;48.688;9.428;2023-02-10T07:47:10;56.33;;;32.60;;
1509;SDS011;746;48.688;9.428;2023-02-10T07:49:31;53.23;;;31.87;;
1509;SDS011;746;48.688;9.428;2023-02-10T07:51:53;52.20;;;32.00;;
1509;SDS011;746;48.688;9.428;2023-02-10T07:54:14;51.77;;;30.90;;
1509;SDS011;746;48.688;9.428;2023-02-10T07:56:35;51.67;;;31.93;;
1509;SDS011;746;48.688;9.428;2023-02-10T07:58:56;47.97;;;29.73;;
1509;SDS011;746;48.688;9.428;2023-02-10T08:01:18;49.67;;;30.23;;
1509;SDS011;746;48.688;9.428;2023-02-10T08:03:41;49.03;;;31.17;;
1509;SDS011;746;48.688;9.428;2023-02-10T08:06:02;52.87;;;31.60;;
1509;SDS011;746;48.688;9.428;2023-02-10T08:08:24;49.53;;;31.03;;
1509;SDS011;746;48.688;9.428;2023-02-10T08:10:45;53.33;;;31.47;;
1509;SDS011;746;48.688;9.428;2023-02-10T08:13:07;51.90;;;33.10;;
1509;SDS011;746;48.688;9.428;2023-02-10T08:15:28;49.53;;;31.40;;
1509;SDS011;746;48.688;9.428;2023-02-10T08:17:49;48.30;;;30.80;;
1509;SDS011;746;48.688;9.428;2023-02-10T08:20:12;52.13;;;31.07;;
1509;SDS011;746;48.688;9.428;2023-02-10T08:22:33;46.03;;;30.13;;
1509;SDS011;746;48.688;9.428;2023-02-10T08:24:54;48.07;;;30.20;;
1509;SDS011;746;48.688;9.428;2023-02-10T08:27:16;48.60;;;30.90;;
1509;SDS011;746;48.688;9.428;2023-02-10T08:29:37;46.93;;;30.47;;
1509;SDS011;746;48.688;9.428;2023-02-10T08:31:58;48.27;;;30.63;;
1509;SDS011;746;48.688;9.428;2023-02-10T08:34:20;45.90;;;29.43;;
1509;SDS011;746;48.688;9.428;2023-02-10T08:36:42;51.97;;;31.00;;
1509;SDS011;746;48.688;9.428;2023-02-10T08:39:04;69.57;;;32.47;;
1509;SDS011;746;48.688;9.428;2023-02-10T08:41:25;49.47;;;31.57;;
1509;SDS011;746;48.688;9.428;2023-02-10T08:43:49;51.63;;;33.47;;
1509;SDS011;746;48.688;9.428;2023-02-10T08:46:11;54.27;;;33.33;;
1509;SDS011;746;48.688;9.428;2023-02-10T08:48:32;52.87;;;34.07;;
1509;SDS011;746;48.688;9.428;2023-02-10T08:50:53;51.23;;;31.90;;
1509;SDS011;746;48.688;9.428;2023-02-10T08:53:16;49.70;;;31.80;;
1509;SDS011;746;48.688;9.428;2023-02-10T08:55:37;46.10;;;30.50;;
1509;SDS011;746;48.688;9.428;2023-02-10T08:57:59;46.67;;;30.17;;
1509;SDS011;746;48.688;9.428;2023-02-10T09:00:20;49.30;;;29.87;;
1509;SDS011;746;48.688;9.428;2023-02-10T09:02:41;48.30;;;30.07;;
1509;SDS011;746;48.688;9.428;2023-02-10T09:05:02;45.77;;;29.57;;
1509;SDS011;746;48.688;9.428;2023-02-10T09:07:29;49.20;;;30.23;;
1509;SDS011;746;48.688;9.428;2023-02-10T09:09:52;48.60;;;30.97;;
1509;SDS011;746;48.688;9.428;2023-02-10T09:12:13;45.07;;;30.07;;
1509;SDS011;746;48.688;9.428;2023-02-10T09:14:34;49.70;;;31.13;;
1509;SDS011;746;48.688;9.428;2023-02-10T09:16:56;49.97;;;32.80;;
1509;SDS011;746;48.688;9.428;2023-02-10T09:19:17;44.00;;;30.20;;
1509;SDS011;746;48.688;9.428;2023-02-10T09:21:39;48.17;;;29.53;;
1509;SDS011;746;48.688;9.428;2023-02-10T09:24:06;45.23;;;29.77;;
1509;SDS011;746;48.688;9.428;2023-02-10T09:26:30;42.20;;;29.83;;
1509;SDS011;746;48.688;9.428;2023-02-10T09:28:51;40.40;;;28.20;;
1509;SDS011;746;48.688;9.428;2023-02-10T09:31:12;41.00;;;28.17;;
1509;SDS011;746;48.688;9.428;2023-02-10T09:33:35;44.60;;;30.63;;
1509;SDS011;746;48.688;9.428;2023-02-10T09:35:57;44.13;;;29.93;;
1509;SDS011;746;48.688;9.428;2023-02-10T09:38:18;42.77;;;28.47;;
1509;SDS011;746;48.688;9.428;2023-02-10T09:40:46;42.17;;;28.27;;
1509;SDS011;746;48.688;9.428;2023-02-10T09:43:14;41.03;;;29.30;;
1509;SDS011;746;48.688;9.428;2023-02-10T09:45:38;40.33;;;28.73;;
1509;SDS011;746;48.688;9.428;2023-02-10T09:48:00;45.20;;;29.27;;
1509;SDS011;746;48.688;9.428;2023-02-10T09:50:30;40.10;;;28.10;;
1509;SDS011;746;48.688;9.428;2023-02-10T09:52:57;40.43;;;29.97;;
1509;SDS011;746;48.688;9.428;2023-02-10T09:55:21;42.80;;;28.77;;
1509;SDS011;746;48.688;9.428;2023-02-10T09:57:44;40.70;;;28.53;;
1509;SDS011;746;48.688;9.428;2023-02-10T10:00:12;38.80;;;28.23;;
1509;SDS011;746;48.688;9.428;2023-02-10T10:02:39;42.83;;;28.20;;
1509;SDS011;746;48.688;9.428;2023-02-10T10:05:05;42.13;;;28.60;;
1509;SDS011;746;48.688;9.428;2023-02-10T10:07:31;40.47;;;28.63;;
1509;SDS011;746;48.688;9.428;2023-02-10T10:09:58;39.73;;;28.53;;
1509;SDS011;746;48.688;9.428;2023-02-10T10:12:19;40.03;;;28.70;;
1509;SDS011;746;48.688;9.428;2023-02-10T10:14:40;41.17;;;28.50;;
1509;SDS011;746;48.688;9.428;2023-02-10T10:17:08;40.23;;;28.30;;
1509;SDS011;746;48.688;9.428;2023-02-10T10:19:32;42.03;;;29.27;;
1509;SDS011;746;48.688;9.428;2023-02-10T10:22:06;39.37;;;28.77;;
1509;SDS011;746;48.688;9.428;2023-02-10T10:24:42;39.67;;;27.73;;
1509;SDS011;746;48.688;9.428;2023-02-10T10:27:11;39.97;;;28.67;;
1509;SDS011;746;48.688;9.428;2023-02-10T10:29:39;37.00;;;27.20;;
1509;SDS011;746;48.688;9.428;2023-02-10T10:32:09;39.47;;;28.43;;
1509;SDS011;746;48.688;9.428;2023-02-10T10:34:34;41.67;;;29.37;;
1509;SDS011;746;48.688;9.428;2023-02-10T10:36:57;45.47;;;30.43;;
1509;SDS011;746;48.688;9.428;2023-02-10T10:39:22;45.80;;;29.20;;
1509;SDS011;746;48.688;9.428;2023-02-10T10:41:46;38.27;;;28.40;;
1509;SDS011;746;48.688;9.428;2023-02-10T10:44:08;38.70;;;29.20;;
1509;SDS011;746;48.688;9.428;2023-02-10T10:46:33;36.67;;;28.23;;
1509;SDS011;746;48.688;9.428;2023-02-10T10:48:57;37.23;;;28.90;;
1509;SDS011;746;48.688;9.428;2023-02-10T10:51:19;37.57;;;27.83;;
1509;SDS011;746;48.688;9.428;2023-02-10T10:53:41;41.37;;;28.60;;
1509;SDS011;746;48.688;9.428;2023-02-10T10:56:03;39.67;;;29.53;;
1509;SDS011;746;48.688;9.428;2023-02-10T10:58:27;43.20;;;29.73;;
1509;SDS011;746;48.688;9.428;2023-02-10T11:00:49;40.03;;;29.50;;
1509;SDS011;746;48.688;9.428;2023-02-10T11:03:13;40.50;;;30.10;;
1509;SDS011;746;48.688;9.428;2023-02-10T11:05:37;41.57;;;29.37;;
1509;SDS011;746;48.688;9.428;2023-02-10T11:07:59;37.77;;;27.73;;
1509;SDS011;746;48.688;9.428;2023-02-10T11:10:22;38.70;;;28.37;;
1509;SDS011;746;48.688;9.428;2023-02-10T11:12:44;43.07;;;29.07;;
1509;SDS011;746;48.688;9.428;2023-02-10T11:15:22;41.10;;;28.93;;
1509;SDS011;746;48.688;9.428;2023-02-10T11:17:45;39.47;;;29.40;;
1509;SDS011;746;48.688;9.428;2023-02-10T11:20:20;41.27;;;28.53;;
1509;SDS011;746;48.688;9.428;2023-02-10T11:22:43;39.33;;;27.27;;
1509;SDS011;746;48.688;9.428;2023-02-10T11:25:18;37.43;;;27.07;;
1509;SDS011;746;48.688;9.428;2023-02-10T11:27:48;37.67;;;27.93;;
1509;SDS011;746;48.688;9.428;2023-02-10T11:30:22;40.13;;;28.03;;
1509;SDS011;746;48.688;9.428;2023-02-10T11:32:45;40.63;;;27.93;;
1509;SDS011;746;48.688;9.428;2023-02-10T11:35:14;38.23;;;28.17;;
1509;SDS011;746;48.688;9.428;2023-02-10T11:37:37;42.07;;;27.67;;
1509;SDS011;746;48.688;9.428;2023-02-10T11:40:00;39.07;;;28.40;;
1509;SDS011;746;48.688;9.428;2023-02-10T11:42:23;42.87;;;29.40;;
1509;SDS011;746;48.688;9.428;2023-02-10T11:44:52;40.90;;;29.30;;
1509;SDS011;746;48.688;9.428;2023-02-10T11:47:14;45.70;;;27.00;;
1509;SDS011;746;48.688;9.428;2023-02-10T11:49:35;35.10;;;25.50;;
1509;SDS011;746;48.688;9.428;2023-02-10T11:51:57;37.30;;;26.90;;
1509;SDS011;746;48.688;9.428;2023-02-10T11:54:19;35.80;;;26.20;;
1509;SDS011;746;48.688;9.428;2023-02-10T11:56:43;34.17;;;25.77;;
1509;SDS011;746;48.688;9.428;2023-02-10T11:59:27;34.57;;;24.43;;
1509;SDS011;746;48.688;9.428;2023-02-10T12:01:53;31.73;;;23.00;;
1509;SDS011;746;48.688;9.428;2023-02-10T12:04:23;30.37;;;22.53;;
1509;SDS011;746;48.688;9.428;2023-02-10T12:06:50;30.47;;;22.53;;
1509;SDS011;746;48.688;9.428;2023-02-10T12:09:16;34.13;;;23.87;;
1509;SDS011;746;48.688;9.428;2023-02-10T12:11:49;32.80;;;24.00;;
1509;SDS011;746;48.688;9.428;2023-02-10T12:14:19;34.23;;;25.43;;
1509;SDS011;746;48.688;9.428;2023-02-10T12:16:47;29.83;;;22.13;;
1509;SDS011;746;48.688;9.428;2023-02-10T12:19:12;29.03;;;20.93;;
1509;SDS011;746;48.688;9.428;2023-02-10T12:21:47;25.70;;;20.20;;
1509;SDS011;746;48.688;9.428;2023-02-10T12:26:49;24.20;;;18.40;;
1509;SDS011;746;48.688;9.428;2023-02-10T12:29:14;26.43;;;19.33;;
1509;SDS011;746;48.688;9.428;2023-02-10T12:31:41;24.63;;;18.47;;
1509;SDS011;746;48.688;9.428;2023-02-10T12:34:12;27.43;;;18.13;;
1509;SDS011;746;48.688;9.428;2023-02-10T12:36:36;24.37;;;18.60;;
1509;SDS011;746;48.688;9.428;2023-02-10T12:39:02;25.40;;;18.43;;
1509;SDS011;746;48.688;9.428;2023-02-10T12:41:29;71.90;;;36.67;;
1509;SDS011;746;48.688;9.428;2023-02-10T12:43:58;23.60;;;18.03;;
1509;SDS011;746;48.688;9.428;2023-02-10T12:46:23;33.93;;;22.50;;
1509;SDS011;746;48.688;9.428;2023-02-10T12:48:48;91.87;;;46.87;;
1509;SDS011;746;48.688;9.428;2023-02-10T12:51:14;42.00;;;27.97;;
1509;SDS011;746;48.688;9.428;2023-02-10T12:53:38;36.13;;;24.07;;
1509;SDS011;746;48.688;9.428;2023-02-10T12:56:01;25.40;;;19.33;;
1509;SDS011;746;48.688;9.428;2023-02-10T12:58:25;23.93;;;18.27;;
1509;SDS011;746;48.688;9.428;2023-02-10T13:00:49;26.67;;;19.50;;
1509;SDS011;746;48.688;9.428;2023-02-10T13:03:14;24.93;;;18.80;;
1509;SDS011;746;48.688;9.428;2023-02-10T13:05:37;24.53;;;18.97;;
1509;SDS011;746;48.688;9.428;2023-02-10T13:08:00;21.80;;;17.60;;
1509;SDS011;746;48.688;9.428;2023-02-10T13:10:26;24.80;;;18.93;;
1509;SDS011;746;48.688;9.428;2023-02-10T13:12:50;28.73;;;20.40;;
1509;SDS011;746;48.688;9.428;2023-02-10T13:15:13;34.63;;;24.33;;
1509;SDS011;746;48.688;9.428;2023-02-10T13:17:38;24.20;;;18.90;;
1509;SDS011;746;48.688;9.428;2023-02-10T13:20:02;24.93;;;19.63;;
1509;SDS011;746;48.688;9.428;2023-02-10T13:22:31;29.03;;;22.20;;
1509;SDS011;746;48.688;9.428;2023-02-10T13:24:57;24.63;;;18.97;;
1509;SDS011;746;48.688;9.428;2023-02-10T13:27:23;23.77;;;18.80;;
1509;SDS011;746;48.688;9.428;2023-02-10T13:29:47;23.80;;;19.33;;
1509;SDS011;746;48.688;9.428;2023-02-10T13:32:18;22.57;;;18.17;;
1509;SDS011;746;48.688;9.428;2023-02-10T13:34:47;26.87;;;19.60;;
1509;SDS011;746;48.688;9.428;2023-02-10T13:37:11;24.63;;;19.10;;
1509;SDS011;746;48.688;9.428;2023-02-10T13:39:34;27.70;;;19.87;;
1509;SDS011;746;48.688;9.428;2023-02-10T13:42:05;27.33;;;18.53;;
1509;SDS011;746;48.688;9.428;2023-02-10T13:44:27;22.80;;;18.67;;
1509;SDS011;746;48.688;9.428;2023-02-10T13:46:50;26.00;;;19.50;;
1509;SDS011;746;48.688;9.428;2023-02-10T13:49:15;26.17;;;19.60;;
1509;SDS011;746;48.688;9.428;2023-02-10T13:51:39;26.43;;;19.53;;
1509;SDS011;746;48.688;9.428;2023-02-10T13:54:00;26.70;;;19.07;;
1509;SDS011;746;48.688;9.428;2023-02-10T13:56:24;30.60;;;20.33;;
1509;SDS011;746;48.688;9.428;2023-02-10T13:58:50;28.23;;;20.27;;
1509;SDS011;746;48.688;9.428;2023-02-10T14:03:53;30.13;;;21.17;;
1509;SDS011;746;48.688;9.428;2023-02-10T14:06:15;28.60;;;20.77;;
1509;SDS011;746;48.688;9.428;2023-02-10T14:08:38;26.83;;;20.30;;
1509;SDS011;746;48.688;9.428;2023-02-10T14:11:26;26.07;;;19.13;;
1509;SDS011;746;48.688;9.428;2023-02-10T14:13:56;24.53;;;18.57;;
1509;SDS011;746;48.688;9.428;2023-02-10T14:16:27;26.83;;;19.53;;
1509;SDS011;746;48.688;9.428;2023-02-10T14:18:57;27.03;;;19.77;;
1509;SDS011;746;48.688;9.428;2023-02-10T14:21:18;27.33;;;19.60;;
1509;SDS011;746;48.688;9.428;2023-02-10T14:23:43;26.57;;;19.63;;
1509;SDS011;746;48.688;9.428;2023-02-10T14:26:13;28.83;;;20.00;;
1509;SDS011;746;48.688;9.428;2023-02-10T14:28:36;26.80;;;20.10;;
1509;SDS011;746;48.688;9.428;2023-02-10T14:30:58;26.13;;;19.93;;
1509;SDS011;746;48.688;9.428;2023-02-10T14:33:21;29.03;;;20.60;;
1509;SDS011;746;48.688;9.428;2023-02-10T14:35:48;29.40;;;19.60;;
1509;SDS011;746;48.688;9.428;2023-02-10T14:38:16;33.47;;;19.80;;
1509;SDS011;746;48.688;9.428;2023-02-10T14:40:40;25.93;;;18.73;;
1509;SDS011;746;48.688;9.428;2023-02-10T14:43:04;28.57;;;20.77;;
1509;SDS011;746;48.688;9.428;2023-02-10T14:45:26;29.43;;;21.23;;
1509;SDS011;746;48.688;9.428;2023-02-10T14:47:49;27.27;;;20.53;;